createdAt,value
2022-09-23T00:02:55.928Z,2.05
2022-09-23T00:06:08.342Z,1.67
2022-09-23T00:09:18.556Z,1.70
2022-09-23T00:12:30.043Z,1.92
2022-09-23T00:15:40.862Z,1.73
2022-09-23T00:18:51.228Z,1.45
2022-09-23T00:22:01.429Z,1.67
2022-09-23T00:25:12.726Z,1.50
2022-09-23T00:28:24.523Z,1.70
2022-09-23T00:31:34.928Z,1.60
2022-09-23T00:34:45.663Z,1.63
2022-09-23T00:37:56.133Z,1.63
2022-09-23T00:41:06.594Z,1.35
2022-09-23T00:44:48.539Z,1.60
2022-09-23T00:48:01.328Z,1.88
2022-09-23T00:51:21.701Z,1.75
2022-09-23T00:54:32.204Z,1.50
2022-09-23T00:57:44.980Z,1.33
2022-09-23T01:00:58.670Z,1.35
2022-09-23T01:04:09.871Z,1.92
2022-09-23T01:07:20.199Z,1.35
2022-09-23T01:10:38.242Z,1.40
2022-09-23T01:13:57.013Z,1.35
2022-09-23T01:17:15.361Z,1.30
2022-09-23T01:21:00.680Z,1.50
2022-09-23T01:24:45.283Z,1.48
2022-09-23T01:28:22.330Z,1.38
2022-09-23T01:31:39.258Z,1.70
2022-09-23T01:34:56.054Z,1.60
2022-09-23T01:38:18.657Z,1.30
2022-09-23T01:41:47.147Z,1.45
2022-09-23T01:45:01.409Z,1.40
2022-09-23T01:48:19.167Z,1.30
2022-09-23T01:51:34.701Z,1.57
2022-09-23T01:54:52.172Z,1.48
2022-09-23T01:58:08.680Z,1.63
2022-09-23T02:01:24.401Z,1.48
2022-09-23T02:04:41.102Z,1.70
2022-09-23T02:07:59.797Z,1.30
2022-09-23T02:11:15.059Z,1.73
2022-09-23T02:14:32.221Z,1.60
2022-09-23T02:17:48.489Z,1.35
2022-09-23T02:21:06.782Z,1.75
2022-09-23T02:24:22.194Z,1.50
2022-09-23T02:27:40.470Z,1.58
2022-09-23T02:30:56.188Z,1.45
2022-09-23T02:34:16.280Z,1.40
2022-09-23T02:37:37.454Z,1.30
2022-09-23T02:40:54.237Z,1.42
2022-09-23T02:44:08.628Z,1.48
2022-09-23T02:47:24.093Z,1.20
2022-09-23T02:50:34.971Z,1.30
2022-09-23T02:53:47.651Z,1.80
2022-09-23T02:56:57.846Z,1.33
2022-09-23T03:00:08.765Z,1.45
2022-09-23T03:03:32.411Z,1.33
2022-09-23T03:06:53.452Z,1.20
2022-09-23T03:10:14.821Z,1.23
2022-09-23T03:13:31.653Z,1.70
2022-09-23T03:16:47.727Z,1.50
2022-09-23T03:20:03.652Z,1.20
2022-09-23T03:23:17.507Z,1.50
2022-09-23T03:26:34.333Z,1.55
2022-09-23T03:29:47.375Z,1.20
2022-09-23T03:33:00.211Z,1.38
2022-09-23T03:36:31.041Z,1.35
2022-09-23T03:39:44.188Z,1.42
2022-09-23T03:42:57.404Z,1.30
2022-09-23T03:46:09.069Z,1.33
2022-09-23T03:49:27.227Z,1.48
2022-09-23T03:52:39.675Z,1.20
2022-09-23T03:55:49.604Z,1.52
2022-09-23T03:59:01.069Z,1.70
2022-09-23T04:02:11.803Z,1.75
2022-09-23T04:05:22.078Z,1.50
2022-09-23T04:08:32.271Z,1.35
2022-09-23T04:11:42.540Z,1.70
2022-09-23T04:14:53.829Z,1.58
2022-09-23T04:18:04.085Z,1.70
2022-09-23T04:21:14.370Z,1.50
2022-09-23T04:24:24.460Z,1.65
2022-09-23T04:27:37.763Z,1.52
2022-09-23T04:30:49.961Z,1.48
2022-09-23T04:34:00.721Z,1.63
2022-09-23T04:37:10.963Z,1.67
2022-09-23T04:40:21.015Z,1.80
2022-09-23T04:43:31.125Z,1.73
2022-09-23T04:46:43.683Z,2.00
2022-09-23T04:49:58.999Z,1.60
2022-09-23T04:53:09.581Z,1.70
2022-09-23T04:56:20.973Z,1.77
2022-09-23T04:59:31.204Z,1.92
2022-09-23T05:02:45.423Z,1.55
2022-09-23T05:05:59.907Z,1.40
2022-09-23T05:09:14.924Z,1.70
2022-09-23T05:12:25.022Z,1.90
2022-09-23T05:15:34.832Z,1.85
2022-09-23T05:18:47.815Z,1.73
2022-09-23T05:21:58.144Z,2.00
2022-09-23T05:25:08.717Z,1.77
2022-09-23T05:28:20.098Z,4.43
2022-09-23T05:31:32.081Z,3.25
2022-09-23T05:34:43.911Z,2.05
2022-09-23T05:37:54.427Z,2.05
2022-09-23T05:41:07.138Z,1.92
2022-09-23T05:44:17.562Z,1.75
2022-09-23T05:47:27.483Z,1.90
2022-09-23T05:50:39.085Z,2.10
2022-09-23T05:53:52.535Z,2.15
2022-09-23T05:57:04.967Z,1.95
2022-09-23T06:00:16.563Z,1.70
2022-09-23T06:03:27.181Z,1.80
2022-09-23T06:06:41.306Z,2.30
2022-09-23T06:09:51.557Z,1.92
2022-09-23T06:13:01.697Z,1.90
2022-09-23T06:16:13.937Z,2.05
2022-09-23T06:19:24.211Z,2.10
2022-09-23T06:22:38.556Z,4.18
2022-09-23T06:25:50.029Z,1.92
2022-09-23T06:29:01.059Z,2.13
2022-09-23T06:32:11.325Z,2.15
2022-09-23T06:35:27.423Z,2.20
2022-09-23T06:38:41.898Z,1.77
2022-09-23T06:41:52.232Z,2.10
2022-09-23T06:45:02.777Z,1.92
2022-09-23T06:48:12.834Z,2.22
2022-09-23T06:51:23.118Z,2.00
2022-09-23T06:54:34.611Z,2.55
2022-09-23T06:57:44.739Z,2.25
2022-09-23T07:00:55.276Z,2.08
2022-09-23T07:04:07.671Z,1.95
2022-09-23T07:07:18.596Z,2.17
2022-09-23T07:10:31.087Z,2.10
2022-09-23T07:13:42.659Z,2.42
2022-09-23T07:16:53.843Z,2.25
2022-09-23T07:20:05.009Z,1.90
2022-09-23T07:23:17.528Z,2.40
2022-09-23T07:26:29.505Z,2.80
2022-09-23T07:29:47.777Z,2.70
2022-09-23T07:32:59.493Z,2.40
2022-09-23T07:36:12.236Z,2.00
2022-09-23T07:39:22.773Z,2.30
2022-09-23T07:42:34.551Z,2.70
2022-09-23T07:45:45.431Z,2.13
2022-09-23T07:48:56.280Z,2.00
2022-09-23T07:52:06.690Z,2.20
2022-09-23T07:55:20.959Z,2.40
2022-09-23T07:58:33.514Z,2.72
2022-09-23T08:01:46.093Z,2.30
2022-09-23T08:04:56.334Z,2.40
2022-09-23T08:08:07.181Z,2.03
2022-09-23T08:11:17.977Z,2.25
2022-09-23T08:14:29.940Z,2.15
2022-09-23T08:17:40.410Z,2.05
2022-09-23T08:20:50.436Z,2.42
2022-09-23T08:24:00.749Z,2.58
2022-09-23T08:27:12.598Z,1.77
2022-09-23T08:30:23.957Z,2.03
2022-09-23T08:33:34.015Z,2.25
2022-09-23T08:36:44.351Z,1.90
2022-09-23T08:39:54.428Z,1.98
2022-09-23T08:43:07.998Z,1.88
2022-09-23T08:46:25.970Z,1.83
2022-09-23T08:49:39.911Z,2.67
2022-09-23T08:52:53.738Z,2.20
2022-09-23T08:56:08.173Z,2.08
2022-09-23T08:59:26.762Z,2.05
2022-09-23T09:02:38.317Z,2.10
2022-09-23T09:05:54.195Z,1.70
2022-09-23T09:09:07.770Z,2.00
2022-09-23T09:12:21.658Z,1.95
2022-09-23T09:15:33.032Z,1.83
2022-09-23T09:18:52.656Z,1.90
2022-09-23T09:22:09.329Z,1.92
2022-09-23T09:25:25.716Z,1.80
2022-09-23T09:28:41.773Z,2.35
2022-09-23T09:31:52.191Z,2.17
2022-09-23T09:35:13.680Z,2.20
2022-09-23T09:38:24.118Z,1.83
2022-09-23T09:41:34.776Z,1.90
2022-09-23T09:44:52.759Z,1.75
2022-09-23T09:48:11.735Z,1.75
2022-09-23T09:54:34.633Z,2.20
2022-09-23T09:57:48.022Z,1.60
2022-09-23T10:00:58.929Z,2.10
2022-09-23T10:04:25.044Z,1.90
2022-09-23T10:07:36.888Z,1.92
2022-09-23T10:10:54.571Z,1.90
2022-09-23T10:14:10.960Z,2.10
2022-09-23T10:17:23.095Z,2.05
2022-09-23T10:20:36.322Z,2.40
2022-09-23T10:23:52.539Z,1.80
2022-09-23T10:27:07.651Z,2.00
2022-09-23T10:30:23.671Z,1.63
2022-09-23T10:33:34.114Z,1.60
2022-09-23T10:36:55.005Z,1.70
2022-09-23T10:40:35.157Z,1.63
2022-09-23T10:44:16.715Z,1.35
2022-09-23T10:47:37.203Z,1.30
2022-09-23T10:50:50.426Z,1.40
2022-09-23T10:54:11.509Z,1.60
2022-09-23T10:57:40.473Z,1.50
2022-09-23T11:01:03.406Z,1.65
2022-09-23T11:04:39.230Z,1.45
2022-09-23T11:08:03.068Z,2.00
2022-09-23T11:11:29.829Z,1.60
2022-09-23T11:14:55.050Z,1.67
2022-09-23T11:18:38.984Z,1.30
2022-09-23T11:22:02.575Z,1.30
2022-09-23T11:25:24.120Z,1.30
2022-09-23T11:28:51.058Z,1.60
2022-09-23T11:32:17.327Z,1.08
2022-09-23T11:35:32.251Z,1.25
2022-09-23T11:38:47.396Z,1.55
2022-09-23T11:42:01.310Z,1.17
2022-09-23T11:45:19.139Z,1.02
2022-09-23T11:48:37.131Z,1.00
2022-09-23T11:52:03.999Z,1.50
2022-09-23T11:55:22.525Z,1.40
2022-09-23T12:02:09.868Z,1.00
2022-09-23T12:05:32.914Z,1.00
2022-09-23T12:08:53.631Z,1.27
2022-09-23T12:12:12.214Z,1.05
2022-09-23T12:18:52.604Z,0.97
2022-09-23T12:22:20.645Z,1.10
2022-09-23T12:25:39.703Z,1.40
2022-09-23T12:28:52.992Z,0.90
2022-09-23T12:32:05.440Z,1.30
2022-09-23T12:35:24.756Z,1.30
2022-09-23T12:38:39.124Z,1.30
2022-09-23T12:41:55.055Z,1.10
2022-09-23T12:45:34.999Z,1.35
2022-09-23T12:49:00.440Z,1.25
2022-09-23T12:52:25.848Z,1.17
2022-09-23T12:55:51.692Z,1.33
2022-09-23T12:59:12.118Z,1.20
2022-09-23T13:02:29.923Z,1.13
2022-09-23T13:06:04.411Z,1.10
2022-09-23T13:09:21.080Z,1.42
2022-09-23T13:12:38.278Z,0.88
2022-09-23T13:15:49.790Z,1.00
2022-09-23T13:19:01.191Z,11.25
2022-09-23T13:22:12.082Z,4.97
2022-09-23T13:25:25.404Z,1.38
2022-09-23T13:28:54.626Z,1.60
2022-09-23T13:32:06.294Z,1.35
2022-09-23T13:35:23.768Z,1.00
2022-09-23T13:38:33.950Z,3.60
2022-09-23T13:41:46.276Z,2.17
2022-09-23T13:45:00.443Z,2.95
2022-09-23T13:48:15.337Z,2.60
2022-09-23T13:51:29.338Z,1.10
2022-09-23T13:54:49.238Z,2.25
2022-09-23T13:58:04.269Z,3.08
2022-09-23T14:01:23.702Z,1.33
2022-09-23T14:04:33.755Z,2.35
2022-09-23T14:07:43.687Z,2.17
2022-09-23T14:10:55.271Z,1.23
2022-09-23T14:14:07.111Z,2.08
2022-09-23T14:17:22.933Z,1.55
2022-09-23T14:20:34.281Z,1.33
2022-09-23T14:23:45.870Z,1.02
2022-09-23T14:26:59.821Z,1.85
2022-09-23T14:30:16.161Z,1.30
2022-09-23T14:33:31.475Z,2.08
2022-09-23T14:36:59.231Z,1.20
2022-09-23T14:40:14.781Z,1.40
2022-09-23T14:43:28.059Z,1.27
2022-09-23T14:46:40.043Z,1.63
2022-09-23T14:50:06.300Z,1.30
2022-09-23T14:53:38.731Z,1.20
2022-09-23T14:56:48.810Z,1.48
2022-09-23T15:00:02.339Z,1.40
2022-09-23T15:03:17.387Z,1.30
2022-09-23T15:06:29.188Z,1.38
2022-09-23T15:09:41.676Z,1.95
2022-09-23T15:12:53.489Z,1.38
2022-09-23T15:16:05.547Z,1.88
2022-09-23T15:19:20.133Z,1.80
2022-09-23T15:22:32.130Z,1.42
2022-09-23T15:25:42.374Z,2.13
2022-09-23T15:28:55.396Z,1.83
2022-09-23T15:32:08.458Z,2.58
2022-09-23T15:35:20.977Z,1.67
2022-09-23T15:38:32.826Z,1.48
2022-09-23T15:41:43.502Z,1.67
2022-09-23T15:44:53.591Z,1.60
2022-09-23T15:48:08.825Z,1.38
2022-09-23T15:51:19.538Z,1.83
2022-09-23T15:54:33.734Z,2.00
2022-09-23T15:57:44.003Z,2.22
2022-09-23T16:00:56.769Z,1.58
2022-09-23T16:04:07.210Z,2.20
2022-09-23T16:07:17.683Z,1.67
2022-09-23T16:10:30.316Z,1.67
2022-09-23T16:13:40.498Z,2.20
2022-09-23T16:16:50.861Z,1.60
2022-09-23T16:20:00.796Z,1.58
2022-09-23T16:23:34.125Z,1.30
2022-09-23T16:26:48.572Z,2.35
2022-09-23T16:29:58.977Z,1.92
2022-09-23T16:33:08.836Z,2.70
2022-09-23T16:36:24.085Z,2.72
2022-09-23T16:39:34.216Z,2.50
2022-09-23T16:42:46.500Z,1.98
2022-09-23T16:45:57.711Z,1.50
2022-09-23T16:49:08.841Z,1.88
2022-09-23T16:52:19.158Z,2.22
2022-09-23T16:55:29.274Z,2.08
2022-09-23T16:58:41.333Z,2.17
2022-09-23T17:02:09.216Z,2.08
2022-09-23T17:05:19.469Z,2.50
2022-09-23T17:08:29.967Z,2.42
2022-09-23T17:11:40.365Z,2.85
2022-09-23T17:14:52.426Z,2.70
2022-09-23T17:18:02.816Z,3.75
2022-09-23T17:21:13.135Z,3.90
2022-09-23T17:24:23.560Z,2.70
2022-09-23T17:27:33.708Z,3.38
2022-09-23T17:30:45.375Z,3.22
2022-09-23T17:33:55.510Z,3.05
2022-09-23T17:37:05.592Z,3.13
2022-09-23T17:40:15.855Z,3.10
2022-09-23T17:43:25.927Z,3.15
2022-09-23T17:46:37.964Z,3.35
2022-09-23T17:49:49.904Z,3.25
2022-09-23T17:53:00.870Z,3.20
2022-09-23T17:56:14.729Z,3.42
2022-09-23T17:59:24.984Z,3.33
2022-09-23T18:02:36.626Z,2.85
2022-09-23T18:05:47.144Z,3.53
2022-09-23T18:08:57.245Z,3.28
2022-09-23T18:12:08.511Z,4.53
2022-09-23T18:15:20.175Z,4.22
2022-09-23T18:18:31.983Z,3.58
2022-09-23T18:21:44.206Z,3.40
2022-09-23T18:24:54.568Z,3.47
2022-09-23T18:28:05.199Z,3.25
2022-09-23T18:31:16.374Z,3.28
2022-09-23T18:34:28.699Z,2.95
2022-09-23T18:37:38.876Z,3.30
2022-09-23T18:40:55.414Z,3.65
2022-09-23T18:44:06.119Z,4.43
2022-09-23T18:47:36.397Z,5.65
2022-09-23T18:50:48.902Z,5.63
2022-09-23T18:54:01.152Z,6.97
2022-09-23T18:57:14.563Z,6.13
2022-09-23T19:00:24.992Z,5.13
2022-09-23T19:03:35.516Z,6.03
2022-09-23T19:06:47.344Z,4.75
2022-09-23T19:09:57.788Z,5.60
2022-09-23T19:13:08.054Z,5.07
2022-09-23T19:16:18.362Z,4.90
2022-09-23T19:19:28.825Z,5.70
2022-09-23T19:22:40.775Z,5.22
2022-09-23T19:25:51.132Z,3.60
2022-09-23T19:29:03.213Z,3.28
2022-09-23T19:32:15.823Z,3.35
2022-09-23T19:35:26.073Z,3.72
2022-09-23T19:38:38.372Z,4.30
2022-09-23T19:41:48.851Z,3.90
2022-09-23T19:44:59.305Z,4.28
2022-09-23T19:48:09.577Z,4.18
2022-09-23T19:51:19.823Z,3.75
2022-09-23T19:54:31.186Z,4.10
2022-09-23T19:57:41.444Z,3.60
2022-09-23T20:00:51.768Z,4.00
2022-09-23T20:04:02.102Z,4.35
2022-09-23T20:07:12.254Z,4.00
2022-09-23T20:10:23.817Z,4.32
2022-09-23T20:13:34.140Z,4.28
2022-09-23T20:16:45.541Z,4.50
2022-09-23T20:19:56.125Z,4.38
2022-09-23T20:23:06.583Z,4.40
2022-09-23T20:26:35.426Z,5.03
2022-09-23T20:29:45.890Z,4.80
2022-09-23T20:32:55.933Z,4.43
2022-09-23T20:36:06.350Z,5.53
2022-09-23T20:39:16.536Z,5.28
2022-09-23T20:42:28.113Z,5.65
2022-09-23T20:45:38.220Z,4.65
2022-09-23T20:48:48.331Z,6.45
2022-09-23T20:51:58.498Z,6.30
2022-09-23T20:55:09.420Z,6.00
2022-09-23T20:58:26.924Z,6.22
2022-09-23T21:01:37.113Z,5.75
2022-09-23T21:04:47.183Z,5.57
2022-09-23T21:08:02.138Z,5.28
2022-09-23T21:11:15.809Z,5.10
2022-09-23T21:14:27.215Z,5.07
2022-09-23T21:17:37.411Z,5.00
2022-09-23T21:20:55.138Z,5.20
2022-09-23T21:24:38.799Z,5.30
2022-09-23T21:27:37.154Z,5.75
2022-09-23T21:30:51.933Z,5.65
2022-09-23T21:34:04.279Z,5.47
2022-09-23T21:37:14.610Z,4.53
2022-09-23T21:40:42.178Z,5.45
2022-09-23T21:43:52.541Z,5.45
2022-09-23T21:47:04.236Z,5.80
2022-09-23T21:50:14.373Z,4.75
2022-09-23T21:53:24.744Z,5.13
2022-09-23T21:56:37.724Z,6.13
2022-09-23T21:59:48.034Z,4.70
2022-09-23T22:02:59.918Z,4.90
2022-09-23T22:06:12.203Z,5.30
2022-09-23T22:09:22.581Z,5.32
2022-09-23T22:12:33.080Z,5.38
2022-09-23T22:15:43.770Z,5.18
2022-09-23T22:18:55.524Z,6.20
2022-09-23T22:22:09.735Z,6.18
2022-09-23T22:25:20.366Z,5.68
2022-09-23T22:28:47.963Z,6.20
2022-09-23T22:32:15.588Z,6.43
2022-09-23T22:35:27.392Z,5.80
2022-09-23T22:38:38.670Z,5.68
2022-09-23T22:41:50.634Z,6.15
2022-09-23T22:45:00.739Z,5.38
2022-09-23T22:48:10.936Z,5.38
2022-09-23T22:51:22.984Z,5.95
2022-09-23T22:54:34.225Z,5.45
2022-09-23T22:57:44.379Z,5.57
2022-09-23T23:00:57.053Z,5.45
2022-09-23T23:04:08.302Z,6.22
2022-09-23T23:07:21.641Z,5.63
2022-09-23T23:10:31.781Z,5.75
2022-09-23T23:13:42.473Z,5.80
2022-09-23T23:16:53.557Z,6.30
2022-09-23T23:20:03.789Z,6.13
2022-09-23T23:23:15.058Z,6.38
2022-09-23T23:26:27.257Z,6.60
2022-09-23T23:29:37.320Z,5.55
2022-09-23T23:32:47.446Z,5.93
2022-09-23T23:35:57.680Z,6.10
2022-09-23T23:39:09.444Z,6.18
2022-09-23T23:42:20.127Z,5.80
2022-09-23T23:45:30.309Z,6.68
2022-09-23T23:48:41.765Z,6.05
2022-09-23T23:51:52.094Z,5.75
2022-09-23T23:55:05.189Z,6.10
2022-09-23T23:58:16.022Z,6.03
